createdAt,value
2022-12-08T00:01:14.060Z,-10.29
2022-12-08T00:03:41.757Z,-10.26
2022-12-08T00:06:40.151Z,-10.36
2022-12-08T00:09:23.937Z,-10.28
2022-12-08T00:11:57.968Z,-10.32
2022-12-08T00:14:30.894Z,-10.34
2022-12-08T00:16:58.497Z,-10.28
2022-12-08T00:19:25.635Z,-10.35
2022-12-08T00:21:53.265Z,-10.41
2022-12-08T00:24:21.065Z,-10.24
2022-12-08T00:26:48.493Z,-10.23
2022-12-08T00:29:17.724Z,-10.41
2022-12-08T00:31:45.041Z,-10.32
2022-12-08T00:34:13.897Z,-10.35
2022-12-08T00:36:40.933Z,-10.30
2022-12-08T00:39:07.703Z,-10.23
2022-12-08T00:41:53.006Z,-10.25
2022-12-08T00:44:19.813Z,-10.30
2022-12-08T00:46:46.909Z,-10.20
2022-12-08T00:49:14.627Z,-10.31
2022-12-08T00:51:41.679Z,-10.31
2022-12-08T00:54:08.840Z,-10.27
2022-12-08T00:56:36.006Z,-10.14
2022-12-08T00:59:04.700Z,-10.19
2022-12-08T01:01:32.361Z,-10.22
2022-12-08T01:04:02.513Z,-10.25
2022-12-08T01:06:29.302Z,-10.24
2022-12-08T01:08:56.080Z,-10.13
2022-12-08T01:11:22.971Z,-10.17
2022-12-08T01:13:49.697Z,-10.24
2022-12-08T01:16:24.649Z,-10.34
2022-12-08T01:18:51.845Z,-10.25
2022-12-08T01:21:19.482Z,-10.25
2022-12-08T01:23:46.565Z,-10.22
2022-12-08T01:26:15.475Z,-10.20
2022-12-08T01:28:42.395Z,-10.27
2022-12-08T01:31:14.891Z,-10.22
2022-12-08T01:33:41.789Z,-10.28
2022-12-08T01:36:10.547Z,-10.23
2022-12-08T01:38:37.353Z,-10.20
2022-12-08T01:41:04.127Z,-10.20
2022-12-08T01:44:09.457Z,-10.26
2022-12-08T01:46:38.740Z,-10.19
2022-12-08T01:49:22.821Z,-10.23
2022-12-08T01:52:22.557Z,-10.37
2022-12-08T01:54:58.930Z,-10.16
2022-12-08T01:57:30.864Z,-10.15
2022-12-08T02:00:05.157Z,-10.35
2022-12-08T02:02:40.048Z,-10.37
2022-12-08T02:05:07.583Z,-10.26
2022-12-08T02:07:36.049Z,-10.22
2022-12-08T02:10:04.356Z,-10.35
2022-12-08T02:12:31.462Z,-10.29
2022-12-08T02:15:18.910Z,-10.42
2022-12-08T02:18:13.630Z,-10.40
2022-12-08T02:20:52.482Z,-10.36
2022-12-08T02:23:24.291Z,-10.30
2022-12-08T02:26:06.019Z,-10.41
2022-12-08T02:29:05.245Z,-10.29
2022-12-08T02:31:49.669Z,-10.29
2022-12-08T02:34:38.945Z,-10.42
2022-12-08T02:37:31.022Z,-10.38
2022-12-08T02:40:04.094Z,-10.26
2022-12-08T02:42:37.549Z,-10.28
2022-12-08T02:45:13.548Z,-10.21
2022-12-08T02:47:41.249Z,-10.22
2022-12-08T02:50:08.477Z,-10.26
2022-12-08T02:52:38.745Z,-10.27
2022-12-08T02:55:11.882Z,-10.28
2022-12-08T02:58:07.288Z,-10.36
2022-12-08T03:00:48.422Z,-10.37
2022-12-08T03:03:33.160Z,-10.23
2022-12-08T03:06:22.048Z,-10.27
2022-12-08T03:08:58.218Z,-10.25
2022-12-08T03:11:34.876Z,-10.26
2022-12-08T03:14:04.846Z,-10.33
2022-12-08T03:16:35.107Z,-10.34
2022-12-08T03:19:26.768Z,-10.30
2022-12-08T03:22:03.650Z,-10.35
2022-12-08T03:24:39.103Z,-10.28
2022-12-08T03:27:20.992Z,-10.34
2022-12-08T03:29:51.187Z,-10.27
2022-12-08T03:32:39.494Z,-10.35
2022-12-08T03:35:11.395Z,-10.33
2022-12-08T03:37:39.905Z,-10.39
2022-12-08T03:40:09.824Z,-10.40
2022-12-08T03:42:36.677Z,-10.35
2022-12-08T03:45:04.736Z,-10.31
2022-12-08T03:47:31.514Z,-10.29
2022-12-08T03:49:58.237Z,-10.31
2022-12-08T03:52:24.972Z,-10.32
2022-12-08T03:54:51.762Z,-10.30
2022-12-08T03:57:18.514Z,-10.29
2022-12-08T03:59:45.267Z,-10.30
2022-12-08T04:02:12.064Z,-10.26
2022-12-08T04:04:38.887Z,-10.27
2022-12-08T04:07:05.609Z,-10.41
2022-12-08T04:09:32.350Z,-10.38
2022-12-08T04:11:59.124Z,-10.35
2022-12-08T04:14:25.845Z,-10.41
2022-12-08T04:16:52.613Z,-10.29
2022-12-08T04:19:19.890Z,-10.29
2022-12-08T04:21:46.637Z,-10.21
2022-12-08T04:24:13.368Z,-10.35
2022-12-08T04:26:40.153Z,-10.32
2022-12-08T04:29:06.960Z,-10.31
2022-12-08T04:31:33.829Z,-10.33
2022-12-08T04:34:00.634Z,-10.33
2022-12-08T04:36:27.370Z,-10.34
2022-12-08T04:38:54.263Z,-10.38
2022-12-08T04:41:21.226Z,-10.31
2022-12-08T04:43:47.988Z,-10.34
2022-12-08T04:46:14.770Z,-10.40
2022-12-08T04:48:41.721Z,-10.43
2022-12-08T04:51:15.246Z,-10.45
2022-12-08T04:53:46.303Z,-10.47
2022-12-08T04:56:18.750Z,-10.44
2022-12-08T04:58:46.093Z,-10.42
2022-12-08T05:01:13.273Z,-10.42
2022-12-08T05:03:40.141Z,-10.48
2022-12-08T05:06:07.332Z,-10.39
2022-12-08T05:08:34.128Z,-10.46
2022-12-08T05:11:05.229Z,-10.44
2022-12-08T05:13:32.170Z,-10.61
2022-12-08T05:16:15.820Z,-10.51
2022-12-08T05:18:43.186Z,-10.47
2022-12-08T05:21:10.537Z,-10.52
2022-12-08T05:23:37.346Z,-10.44
2022-12-08T05:26:04.361Z,-10.47
2022-12-08T05:28:46.348Z,-10.50
2022-12-08T05:31:14.696Z,-10.51
2022-12-08T05:33:41.707Z,-10.59
2022-12-08T05:36:09.497Z,-10.50
2022-12-08T05:38:36.282Z,-10.51
2022-12-08T05:41:03.184Z,-10.54
2022-12-08T05:43:29.919Z,-10.50
2022-12-08T05:45:56.797Z,-10.52
2022-12-08T05:48:23.533Z,-10.39
2022-12-08T05:50:51.263Z,-10.46
2022-12-08T05:53:19.709Z,-10.57
2022-12-08T05:55:47.517Z,-10.49
2022-12-08T05:58:17.513Z,-10.43
2022-12-08T06:00:45.382Z,-10.54
2022-12-08T06:03:13.478Z,-10.59
2022-12-08T06:05:45.089Z,-10.52
2022-12-08T06:08:12.578Z,-10.56
2022-12-08T06:10:40.871Z,-10.53
2022-12-08T06:13:07.692Z,-10.57
2022-12-08T06:15:38.741Z,-10.41
2022-12-08T06:18:06.499Z,-10.35
2022-12-08T06:20:34.131Z,-10.48
2022-12-08T06:23:00.869Z,-10.52
2022-12-08T06:25:27.622Z,-10.40
2022-12-08T06:27:54.379Z,-10.45
2022-12-08T06:30:21.133Z,-10.43
2022-12-08T06:32:47.899Z,-10.29
2022-12-08T06:35:14.564Z,-10.32
2022-12-08T06:37:41.286Z,-10.30
2022-12-08T06:40:08.656Z,-10.37
2022-12-08T06:42:44.329Z,-10.17
2022-12-08T06:45:12.370Z,-10.33
2022-12-08T06:47:39.157Z,-10.23
2022-12-08T06:50:06.937Z,-10.36
2022-12-08T06:52:37.641Z,-10.26
2022-12-08T06:55:08.670Z,-10.30
2022-12-08T06:57:35.696Z,-10.26
2022-12-08T07:00:03.215Z,-10.35
2022-12-08T07:02:30.687Z,-10.42
2022-12-08T07:04:57.423Z,-10.32
2022-12-08T07:07:24.168Z,-10.34
2022-12-08T07:09:50.891Z,-10.31
2022-12-08T07:12:17.638Z,-10.15
2022-12-08T07:14:44.374Z,-10.22
2022-12-08T07:17:11.254Z,-10.11
2022-12-08T07:19:37.926Z,-10.28
2022-12-08T07:22:04.712Z,-10.23
2022-12-08T07:24:31.490Z,-10.07
2022-12-08T07:26:58.240Z,-10.01
2022-12-08T07:29:26.506Z,-9.99
2022-12-08T07:31:53.291Z,-10.21
2022-12-08T07:34:20.177Z,-10.23
2022-12-08T07:36:46.867Z,-10.15
2022-12-08T07:39:13.639Z,-10.15
2022-12-08T07:41:40.383Z,-10.21
2022-12-08T07:44:07.169Z,-9.96
2022-12-08T07:46:33.914Z,-9.96
2022-12-08T07:49:00.779Z,-9.96
2022-12-08T07:51:27.517Z,-9.73
2022-12-08T07:53:55.201Z,-9.85
2022-12-08T07:56:22.601Z,-9.87
2022-12-08T07:58:49.484Z,-9.67
2022-12-08T08:01:30.229Z,-9.86
2022-12-08T08:04:01.885Z,-9.79
2022-12-08T08:06:29.005Z,-9.65
2022-12-08T08:08:55.826Z,-9.73
2022-12-08T08:11:23.596Z,-9.93
2022-12-08T08:13:51.385Z,-9.74
2022-12-08T08:16:19.581Z,-9.53
2022-12-08T08:18:50.958Z,-9.51
2022-12-08T08:24:05.898Z,-9.52
2022-12-08T08:26:32.714Z,-9.33
2022-12-08T08:28:59.388Z,-9.38
2022-12-08T08:31:27.153Z,-9.42
2022-12-08T08:33:54.297Z,-9.55
2022-12-08T08:36:22.181Z,-9.40
2022-12-08T08:38:49.042Z,-9.37
2022-12-08T08:41:15.874Z,-9.52
2022-12-08T08:43:42.556Z,-9.52
2022-12-08T08:46:10.284Z,-9.44
2022-12-08T08:48:37.824Z,-9.28
2022-12-08T08:51:10.266Z,-9.41
2022-12-08T08:53:37.708Z,-9.30
2022-12-08T08:56:09.543Z,-9.31
2022-12-08T08:58:36.525Z,-9.17
2022-12-08T09:01:03.640Z,-9.30
2022-12-08T09:03:30.383Z,-9.29
2022-12-08T09:05:57.383Z,-9.15
2022-12-08T09:08:36.707Z,-9.17
2022-12-08T09:11:03.562Z,-9.07
2022-12-08T09:13:30.319Z,-9.21
2022-12-08T09:15:57.102Z,-9.33
2022-12-08T09:18:23.954Z,-9.19
2022-12-08T09:20:50.819Z,-9.38
2022-12-08T09:23:17.552Z,-9.24
2022-12-08T09:25:45.767Z,-9.33
2022-12-08T09:28:13.362Z,-9.37
2022-12-08T09:30:40.953Z,-9.20
2022-12-08T09:33:07.711Z,-9.14
2022-12-08T09:35:34.419Z,-9.19
2022-12-08T09:38:01.325Z,-9.12
2022-12-08T09:40:33.063Z,-9.19
2022-12-08T09:43:24.336Z,-9.07
2022-12-08T09:45:51.888Z,-9.08
2022-12-08T09:48:45.560Z,-9.10
2022-12-08T09:51:15.961Z,-8.95
2022-12-08T09:53:50.919Z,-9.06
2022-12-08T09:56:22.861Z,-9.14
2022-12-08T09:59:04.469Z,-9.09
2022-12-08T10:01:38.546Z,-9.04
2022-12-08T10:04:24.698Z,-9.00
2022-12-08T10:07:02.582Z,-8.95
2022-12-08T10:09:38.196Z,-9.05
2022-12-08T10:12:37.169Z,-9.05
2022-12-08T10:15:22.809Z,-8.93
2022-12-08T10:17:54.014Z,-8.98
2022-12-08T10:20:26.872Z,-9.13
2022-12-08T10:23:12.539Z,-9.05
2022-12-08T10:25:48.124Z,-9.17
2022-12-08T10:28:15.057Z,-9.18
2022-12-08T10:30:41.963Z,-9.12
2022-12-08T10:33:18.445Z,-9.06
2022-12-08T10:35:49.108Z,-9.05
2022-12-08T10:38:26.959Z,-9.03
2022-12-08T10:41:02.539Z,-9.13
2022-12-08T10:43:29.366Z,-9.16
2022-12-08T10:46:09.777Z,-9.04
2022-12-08T10:48:36.582Z,-9.03
2022-12-08T10:51:05.815Z,-8.82
2022-12-08T10:53:34.286Z,-8.85
2022-12-08T10:56:03.972Z,-8.88
2022-12-08T10:58:37.132Z,-8.96
2022-12-08T11:01:35.116Z,-8.90
2022-12-08T11:04:04.261Z,-8.91
2022-12-08T11:06:36.949Z,-8.94
2022-12-08T11:09:05.687Z,-8.98
2022-12-08T11:11:44.391Z,-9.03
2022-12-08T11:14:27.524Z,-8.93
2022-12-08T11:16:57.285Z,-8.97
2022-12-08T11:22:24.435Z,-9.03
2022-12-08T11:25:27.565Z,-9.07
2022-12-08T11:27:58.100Z,-9.02
2022-12-08T11:30:45.023Z,-8.94
2022-12-08T11:33:20.129Z,-8.97
2022-12-08T11:36:01.062Z,-8.89
2022-12-08T11:38:29.720Z,-8.93
2022-12-08T11:41:25.719Z,-8.93
2022-12-08T11:44:25.837Z,-8.89
2022-12-08T11:46:58.728Z,-8.90
2022-12-08T11:49:34.539Z,-8.80
2022-12-08T11:52:08.931Z,-8.73
2022-12-08T11:54:44.753Z,-8.65
2022-12-08T11:57:20.945Z,-8.70
2022-12-08T11:59:50.927Z,-8.73
2022-12-08T12:02:24.310Z,-8.67
2022-12-08T12:05:01.902Z,-8.63
2022-12-08T12:07:52.857Z,-8.68
2022-12-08T12:10:44.602Z,-8.76
2022-12-08T12:13:43.764Z,-8.73
2022-12-08T12:16:30.750Z,-8.73
2022-12-08T12:19:09.474Z,-8.75
2022-12-08T12:21:40.921Z,-8.74
2022-12-08T12:24:19.602Z,-8.68
2022-12-08T12:26:59.789Z,-8.61
2022-12-08T12:29:31.345Z,-8.72
2022-12-08T12:32:02.681Z,-8.68
2022-12-08T12:34:52.311Z,-8.47
2022-12-08T12:37:23.121Z,-8.57
2022-12-08T12:39:52.797Z,-8.56
2022-12-08T12:42:56.809Z,-8.60
2022-12-08T12:45:31.262Z,-8.56
2022-12-08T12:48:00.737Z,-8.64
2022-12-08T12:50:33.369Z,-8.61
2022-12-08T12:53:10.644Z,-8.58
2022-12-08T12:55:46.187Z,-8.53
2022-12-08T12:58:36.050Z,-8.47
2022-12-08T13:01:12.162Z,-8.37
2022-12-08T13:04:12.493Z,-8.41
2022-12-08T13:06:48.866Z,-8.49
2022-12-08T13:09:39.369Z,-8.44
2022-12-08T13:12:12.575Z,-8.46
2022-12-08T13:14:50.749Z,-8.44
2022-12-08T13:17:30.722Z,-8.52
2022-12-08T13:20:00.857Z,-8.35
2022-12-08T13:23:13.333Z,-8.47
2022-12-08T13:25:40.033Z,-8.45
2022-12-08T13:28:15.636Z,-8.37
2022-12-08T13:30:48.032Z,-8.28
2022-12-08T13:33:41.299Z,-8.29
2022-12-08T13:36:14.583Z,-8.38
2022-12-08T13:38:45.142Z,-8.33
2022-12-08T13:41:24.544Z,-8.39
2022-12-08T13:44:50.316Z,-8.35
2022-12-08T13:58:37.179Z,-8.32
2022-12-08T14:01:18.848Z,-8.23
2022-12-08T14:06:55.086Z,-8.21
2022-12-08T14:12:22.362Z,-8.36
2022-12-08T14:15:13.612Z,-8.27
2022-12-08T14:17:41.360Z,-8.19
2022-12-08T14:20:13.600Z,-8.27
2022-12-08T14:22:41.138Z,-8.27
2022-12-08T14:25:14.709Z,-8.21
2022-12-08T14:27:41.678Z,-8.25
2022-12-08T14:30:14.786Z,-8.20
2022-12-08T14:32:50.807Z,-8.23
2022-12-08T14:35:35.084Z,-8.19
2022-12-08T14:38:16.249Z,-8.12
2022-12-08T14:40:45.573Z,-8.09
2022-12-08T14:43:14.944Z,-8.07
2022-12-08T14:45:41.645Z,-8.10
2022-12-08T14:48:27.193Z,-7.98
2022-12-08T14:51:16.381Z,-7.97
2022-12-08T14:54:06.118Z,-7.99
2022-12-08T14:56:52.265Z,-8.04
2022-12-08T14:59:30.440Z,-7.93
2022-12-08T15:02:50.452Z,-7.95
2022-12-08T15:05:01.128Z,-7.96
2022-12-08T15:07:30.896Z,-7.91
2022-12-08T15:10:32.160Z,-7.89
2022-12-08T15:13:42.931Z,-7.83
2022-12-08T15:16:36.932Z,-7.90
2022-12-08T15:19:27.852Z,-7.91
2022-12-08T15:21:57.039Z,-7.79
2022-12-08T15:24:26.812Z,-7.80
2022-12-08T15:26:54.021Z,-7.83
2022-12-08T15:29:27.064Z,-7.75
2022-12-08T15:31:56.654Z,-7.77
2022-12-08T15:34:23.656Z,-7.72
2022-12-08T15:36:52.076Z,-7.72
2022-12-08T15:39:27.518Z,-7.72
2022-12-08T15:41:54.141Z,-7.66
2022-12-08T15:44:20.811Z,-7.73
2022-12-08T15:46:52.047Z,-7.80
2022-12-08T15:49:24.135Z,-7.67
2022-12-08T15:51:56.525Z,-7.61
2022-12-08T15:54:27.396Z,-7.64
2022-12-08T15:57:18.479Z,-7.74
2022-12-08T15:59:43.333Z,-7.69
2022-12-08T16:02:17.898Z,-7.58
2022-12-08T16:05:33.414Z,-7.61
2022-12-08T16:07:38.147Z,-7.63
2022-12-08T16:10:06.439Z,-7.67
2022-12-08T16:16:01.077Z,-7.56
2022-12-08T16:18:32.274Z,-7.55
2022-12-08T16:23:46.141Z,-7.63
2022-12-08T16:26:26.076Z,-7.54
2022-12-08T16:29:02.384Z,-7.54
2022-12-08T16:31:29.563Z,-7.60
2022-12-08T16:33:56.331Z,-7.53
2022-12-08T16:36:22.985Z,-7.47
2022-12-08T16:38:49.594Z,-7.48
2022-12-08T16:41:36.147Z,-7.43
2022-12-08T16:44:05.155Z,-7.42
2022-12-08T16:46:31.866Z,-7.41
2022-12-08T16:48:59.192Z,-7.39
2022-12-08T16:51:27.388Z,-7.48
2022-12-08T16:53:55.380Z,-7.48
2022-12-08T16:56:28.758Z,-7.39
2022-12-08T16:58:58.745Z,-7.40
2022-12-08T17:01:25.620Z,-7.55
2022-12-08T17:04:14.753Z,-7.54
2022-12-08T17:06:39.064Z,-7.40
2022-12-08T17:09:05.732Z,-7.38
2022-12-08T17:11:36.225Z,-7.41
2022-12-08T17:14:05.961Z,-7.32
2022-12-08T17:16:32.717Z,-7.36
2022-12-08T17:18:59.431Z,-7.43
2022-12-08T17:21:26.149Z,-7.39
2022-12-08T17:23:53.006Z,-7.38
2022-12-08T17:26:19.682Z,-7.44
2022-12-08T17:29:01.911Z,-7.31
2022-12-08T17:31:31.281Z,-7.31
2022-12-08T17:34:03.062Z,-7.42
2022-12-08T17:36:30.373Z,-7.39
2022-12-08T17:38:59.601Z,-7.23
2022-12-08T17:41:28.539Z,-7.32
2022-12-08T17:43:55.261Z,-7.29
2022-12-08T17:46:22.898Z,-7.17
2022-12-08T17:48:50.168Z,-7.27
2022-12-08T17:51:17.361Z,-7.32
2022-12-08T17:53:45.762Z,-7.22
2022-12-08T17:56:18.861Z,-7.18
2022-12-08T17:58:51.068Z,-7.23
2022-12-08T18:01:20.882Z,-7.26
2022-12-08T18:03:47.608Z,-7.22
2022-12-08T18:06:14.340Z,-7.29
2022-12-08T18:08:41.131Z,-7.21
2022-12-08T18:11:14.634Z,-7.20
2022-12-08T18:13:41.401Z,-7.14
2022-12-08T18:16:08.041Z,-7.17
2022-12-08T18:18:34.762Z,-7.09
2022-12-08T18:21:01.490Z,-7.10
2022-12-08T18:23:28.222Z,-7.18
2022-12-08T18:25:55.184Z,-7.12
2022-12-08T18:28:21.995Z,-7.17
2022-12-08T18:30:48.739Z,-7.10
2022-12-08T18:33:15.638Z,-7.10
2022-12-08T18:35:42.458Z,-7.19
2022-12-08T18:38:09.244Z,-7.03
2022-12-08T18:40:35.972Z,-6.94
2022-12-08T18:43:02.726Z,-6.94
2022-12-08T18:45:29.494Z,-6.89
2022-12-08T18:47:56.325Z,-6.88
2022-12-08T18:50:23.116Z,-6.82
2022-12-08T18:52:49.986Z,-6.77
2022-12-08T18:55:16.725Z,-6.81
2022-12-08T18:57:43.554Z,-6.86
2022-12-08T19:00:16.190Z,-6.76
2022-12-08T19:02:43.120Z,-6.70
2022-12-08T19:05:11.901Z,-6.81
2022-12-08T19:07:38.700Z,-6.96
2022-12-08T19:10:06.726Z,-6.90
2022-12-08T19:12:33.816Z,-6.80
2022-12-08T19:15:00.638Z,-6.72
2022-12-08T19:17:35.573Z,-6.87
2022-12-08T19:20:02.531Z,-6.82
2022-12-08T19:22:31.048Z,-6.73
2022-12-08T19:24:57.736Z,-6.86
2022-12-08T19:27:24.491Z,-6.71
2022-12-08T19:29:51.175Z,-6.77
2022-12-08T19:32:27.202Z,-6.66
2022-12-08T19:34:53.867Z,-6.64
2022-12-08T19:37:20.665Z,-6.70
2022-12-08T19:40:06.143Z,-6.69
2022-12-08T19:42:51.485Z,-6.68
2022-12-08T19:45:21.691Z,-6.68
2022-12-08T19:47:48.860Z,-6.63
2022-12-08T19:50:35.350Z,-6.57
2022-12-08T19:53:09.095Z,-6.59
2022-12-08T19:55:36.649Z,-6.68
2022-12-08T19:58:04.660Z,-6.61
2022-12-08T20:00:33.003Z,-6.65
2022-12-08T20:03:01.843Z,-6.65
2022-12-08T20:05:28.764Z,-6.62
2022-12-08T20:07:56.314Z,-6.59
2022-12-08T20:10:35.625Z,-6.67
2022-12-08T20:13:35.537Z,-6.60
2022-12-08T20:16:02.349Z,-6.69
2022-12-08T20:18:40.417Z,-6.53
2022-12-08T20:21:07.232Z,-6.67
2022-12-08T20:23:34.756Z,-6.66
2022-12-08T20:26:07.415Z,-6.70
2022-12-08T20:28:35.220Z,-6.69
2022-12-08T20:31:02.521Z,-6.72
2022-12-08T20:33:30.149Z,-6.63
2022-12-08T20:36:02.631Z,-6.67
2022-12-08T20:38:29.927Z,-6.69
2022-12-08T20:40:58.369Z,-6.75
2022-12-08T20:43:26.086Z,-6.72
2022-12-08T20:45:52.860Z,-6.57
2022-12-08T20:48:19.643Z,-6.62
2022-12-08T20:50:46.655Z,-6.56
2022-12-08T20:53:13.856Z,-6.62
2022-12-08T20:55:45.220Z,-6.69
2022-12-08T20:58:12.919Z,-6.63
2022-12-08T21:00:39.769Z,-6.65
2022-12-08T21:03:06.778Z,-6.60
2022-12-08T21:05:36.276Z,-6.52
2022-12-08T21:08:03.342Z,-6.54
2022-12-08T21:10:30.298Z,-6.62
2022-12-08T21:12:57.254Z,-6.54
2022-12-08T21:15:24.114Z,-6.57
2022-12-08T21:17:50.892Z,-6.56
2022-12-08T21:20:18.094Z,-6.63
2022-12-08T21:22:44.970Z,-6.55
2022-12-08T21:25:11.984Z,-6.59
2022-12-08T21:27:39.995Z,-6.59
2022-12-08T21:30:09.291Z,-6.49
2022-12-08T21:32:39.088Z,-6.44
2022-12-08T21:35:06.816Z,-6.41
2022-12-08T21:37:34.047Z,-6.47
2022-12-08T21:40:00.789Z,-6.60
2022-12-08T21:42:46.094Z,-6.53
2022-12-08T21:45:19.113Z,-6.49
2022-12-08T21:47:47.867Z,-6.36
2022-12-08T21:50:15.356Z,-6.51
2022-12-08T21:52:46.079Z,-6.49
2022-12-08T21:55:14.097Z,-6.49
2022-12-08T21:57:41.346Z,-6.54
2022-12-08T22:00:11.382Z,-6.51
2022-12-08T22:02:38.535Z,-6.53
2022-12-08T22:05:06.126Z,-6.50
2022-12-08T22:07:32.965Z,-6.34
2022-12-08T22:09:59.927Z,-6.40
2022-12-08T22:12:26.745Z,-6.40
2022-12-08T22:15:01.016Z,-6.29
2022-12-08T22:17:27.869Z,-6.44
2022-12-08T22:19:54.753Z,-6.37
2022-12-08T22:22:21.543Z,-6.26
2022-12-08T22:24:48.281Z,-6.30
2022-12-08T22:27:15.022Z,-6.22
2022-12-08T22:29:41.768Z,-6.26
2022-12-08T22:32:08.709Z,-6.22
2022-12-08T22:34:35.838Z,-6.33
2022-12-08T22:37:02.597Z,-6.43
2022-12-08T22:39:29.369Z,-6.32
2022-12-08T22:41:56.137Z,-6.35
2022-12-08T22:44:22.999Z,-6.23
2022-12-08T22:46:49.761Z,-6.29
2022-12-08T22:49:16.508Z,-6.34
2022-12-08T22:51:43.244Z,-6.25
2022-12-08T22:54:11.584Z,-6.23
2022-12-08T22:56:38.509Z,-6.31
2022-12-08T22:59:05.400Z,-6.27
2022-12-08T23:01:33.334Z,-6.12
2022-12-08T23:04:01.449Z,-6.13
2022-12-08T23:06:30.310Z,-6.12
2022-12-08T23:08:57.958Z,-6.18
2022-12-08T23:11:27.798Z,-6.21
2022-12-08T23:13:56.257Z,-6.12
2022-12-08T23:16:23.377Z,-6.04
2022-12-08T23:18:50.462Z,-6.17
2022-12-08T23:21:19.375Z,-6.06
2022-12-08T23:23:46.666Z,-6.19
2022-12-08T23:26:27.973Z,-6.17
2022-12-08T23:28:55.162Z,-6.14
2022-12-08T23:31:22.561Z,-6.12
2022-12-08T23:33:49.960Z,-6.21
2022-12-08T23:36:18.364Z,-6.17
2022-12-08T23:41:26.452Z,-6.17
2022-12-08T23:43:53.289Z,-6.11
2022-12-08T23:46:22.000Z,-6.14
2022-12-08T23:48:49.780Z,-6.02
2022-12-08T23:51:17.048Z,-6.11
2022-12-08T23:53:44.524Z,-6.03
2022-12-08T23:56:14.419Z,-6.15
2022-12-08T23:58:42.719Z,-6.14
